createdAt,value
2018-05-03T00:01:01.554Z,60.90
2018-05-03T00:03:29.167Z,60.90
2018-05-03T00:05:57.535Z,61.30
2018-05-03T00:08:25.144Z,61.20
2018-05-03T00:10:52.730Z,61.70
2018-05-03T00:13:20.290Z,61.30
2018-05-03T00:15:47.855Z,61.20
2018-05-03T00:18:16.292Z,61.80
2018-05-03T00:20:43.864Z,61.80
2018-05-03T00:23:11.478Z,61.30
2018-05-03T00:25:39.078Z,61.60
2018-05-03T00:28:06.678Z,62.10
2018-05-03T00:30:34.276Z,61.60
2018-05-03T00:33:02.631Z,61.70
2018-05-03T00:35:30.218Z,61.70
2018-05-03T00:37:57.800Z,61.60
2018-05-03T00:40:25.404Z,61.90
2018-05-03T00:42:53.002Z,62.10
2018-05-03T00:45:20.574Z,62.10
2018-05-03T00:47:48.172Z,62.30
2018-05-03T00:50:15.746Z,62.50
2018-05-03T00:52:43.338Z,62.30
2018-05-03T00:55:10.932Z,62.00
2018-05-03T00:57:38.564Z,61.70
2018-05-03T01:00:06.188Z,62.10
2018-05-03T01:02:33.786Z,62.30
2018-05-03T01:05:01.422Z,62.30
2018-05-03T01:07:29.810Z,63.70
2018-05-03T01:09:57.383Z,62.70
2018-05-03T01:12:24.978Z,63.10
2018-05-03T01:14:52.589Z,63.30
2018-05-03T01:17:20.951Z,63.60
2018-05-03T01:19:48.546Z,63.60
2018-05-03T01:22:16.194Z,64.10
2018-05-03T01:24:44.582Z,64.30
2018-05-03T01:27:12.216Z,64.20
2018-05-03T01:29:39.844Z,64.50
2018-05-03T01:32:07.464Z,64.40
2018-05-03T01:34:35.828Z,64.90
2018-05-03T01:37:03.464Z,64.80
2018-05-03T01:39:31.008Z,65.10
2018-05-03T01:41:58.630Z,65.20
2018-05-03T01:44:26.994Z,65.20
2018-05-03T01:46:55.372Z,65.10
2018-05-03T01:49:23.706Z,65.50
2018-05-03T01:51:51.318Z,65.40
2018-05-03T01:54:19.678Z,66.00
2018-05-03T01:56:47.272Z,65.80
2018-05-03T01:59:14.858Z,65.80
2018-05-03T02:01:44.150Z,65.80
2018-05-03T02:04:11.734Z,65.70
2018-05-03T02:06:39.480Z,65.50
2018-05-03T02:09:07.884Z,65.60
2018-05-03T02:11:35.482Z,65.40
2018-05-03T02:14:03.883Z,65.20
2018-05-03T02:16:31.532Z,65.20
2018-05-03T02:18:59.144Z,65.60
2018-05-03T02:21:26.726Z,65.30
2018-05-03T02:23:54.337Z,65.00
2018-05-03T02:26:21.957Z,65.30
2018-05-03T02:28:50.336Z,64.70
2018-05-03T02:31:18.685Z,64.50
2018-05-03T02:33:46.268Z,64.50
2018-05-03T02:36:13.843Z,64.30
2018-05-03T02:38:42.183Z,64.30
2018-05-03T02:41:09.776Z,64.30
2018-05-03T02:43:38.128Z,64.60
2018-05-03T02:46:05.706Z,64.60
2018-05-03T02:48:34.088Z,64.70
2018-05-03T02:51:02.520Z,64.30
2018-05-03T02:53:30.111Z,64.30
2018-05-03T02:55:57.700Z,64.30
2018-05-03T02:58:37.204Z,64.70
2018-05-03T03:01:22.285Z,64.30
2018-05-03T03:07:20.122Z,64.20
2018-05-03T03:10:02.311Z,64.10
2018-05-03T03:12:42.108Z,64.20
2018-05-03T03:15:27.323Z,64.70
2018-05-03T03:18:13.303Z,65.30
2018-05-03T03:20:58.635Z,65.20
2018-05-03T03:23:43.941Z,65.50
2018-05-03T03:29:43.695Z,66.00
2018-05-03T03:32:23.864Z,66.00
2018-05-03T03:35:03.384Z,66.00
2018-05-03T03:37:42.770Z,66.00
2018-05-03T03:40:25.049Z,66.00
2018-05-03T03:45:52.011Z,67.00
2018-05-03T03:48:20.273Z,67.60
2018-05-03T03:50:48.588Z,67.70
2018-05-03T03:53:16.144Z,67.70
2018-05-03T03:55:43.659Z,67.80
2018-05-03T03:58:11.169Z,67.90
2018-05-03T04:00:38.678Z,68.00
2018-05-03T04:03:06.239Z,68.00
2018-05-03T04:05:33.745Z,68.20
2018-05-03T04:08:01.258Z,68.50
2018-05-03T04:10:28.788Z,68.10
2018-05-03T04:12:56.293Z,68.00
2018-05-03T04:15:24.576Z,68.00
2018-05-03T04:18:04.099Z,68.00
2018-05-03T04:20:46.006Z,68.10
2018-05-03T04:26:12.920Z,67.90
2018-05-03T04:28:40.459Z,68.10
2018-05-03T04:31:07.978Z,68.10
2018-05-03T04:33:36.275Z,68.10
2018-05-03T04:36:03.786Z,68.00
2018-05-03T04:38:31.304Z,67.80
2018-05-03T04:40:58.935Z,67.40
2018-05-03T04:43:27.244Z,66.60
2018-05-03T04:45:54.764Z,66.60
2018-05-03T04:48:35.878Z,66.50
2018-05-03T04:51:03.432Z,66.10
2018-05-03T04:53:30.959Z,66.30
2018-05-03T04:56:00.084Z,65.90
2018-05-03T04:58:27.590Z,65.40
2018-05-03T05:00:55.093Z,64.90
2018-05-03T05:03:22.626Z,64.40
2018-05-03T05:05:50.146Z,64.00
2018-05-03T05:08:17.660Z,63.10
2018-05-03T05:10:45.990Z,61.40
2018-05-03T05:13:13.520Z,61.40
2018-05-03T05:15:41.038Z,61.90
2018-05-03T05:18:09.351Z,61.80
2018-05-03T05:21:02.512Z,61.80
2018-05-03T05:23:33.655Z,60.00
2018-05-03T05:26:08.035Z,58.20
2018-05-03T05:28:44.190Z,56.80
2018-05-03T05:31:12.626Z,55.00
2018-05-03T05:33:40.235Z,55.00
2018-05-03T05:36:07.855Z,53.00
2018-05-03T05:38:35.564Z,52.50
2018-05-03T05:41:03.138Z,53.00
2018-05-03T05:43:34.148Z,53.60
2018-05-03T05:46:01.793Z,53.80
2018-05-03T05:48:29.388Z,54.80
2018-05-03T05:50:57.017Z,55.80
2018-05-03T05:53:24.623Z,57.50
2018-05-03T05:55:52.240Z,57.90
2018-05-03T05:58:19.835Z,58.50
2018-05-03T06:00:48.232Z,59.60
2018-05-03T06:03:15.875Z,59.60
2018-05-03T06:05:44.281Z,59.30
2018-05-03T06:08:11.889Z,59.30
2018-05-03T06:10:39.496Z,58.60
2018-05-03T06:13:07.063Z,59.90
2018-05-03T06:15:34.699Z,59.10
2018-05-03T06:18:16.133Z,59.30
2018-05-03T06:20:43.750Z,59.30
2018-05-03T06:23:12.485Z,59.30
2018-05-03T06:25:41.585Z,59.30
2018-05-03T06:28:09.583Z,59.60
2018-05-03T06:30:37.171Z,59.30
2018-05-03T06:33:05.585Z,59.30
2018-05-03T06:35:33.889Z,59.30
2018-05-03T06:38:02.559Z,59.60
2018-05-03T06:40:35.337Z,59.50
2018-05-03T06:43:02.929Z,59.30
2018-05-03T06:45:30.535Z,59.40
2018-05-03T06:47:58.145Z,59.00
2018-05-03T06:50:27.264Z,57.80
2018-05-03T06:52:55.701Z,57.00
2018-05-03T06:55:23.259Z,57.00
2018-05-03T06:57:50.855Z,56.90
2018-05-03T07:00:19.268Z,56.70
2018-05-03T07:02:46.877Z,56.70
2018-05-03T07:05:14.474Z,56.40
2018-05-03T07:07:42.051Z,56.70
2018-05-03T07:10:09.664Z,56.40
2018-05-03T07:12:38.032Z,56.60
2018-05-03T07:15:05.643Z,56.60
2018-05-03T07:17:33.225Z,56.80
2018-05-03T07:20:00.817Z,55.10
2018-05-03T07:22:28.385Z,54.60
2018-05-03T07:24:55.987Z,55.80
2018-05-03T07:27:23.569Z,55.80
2018-05-03T07:29:51.174Z,55.40
2018-05-03T07:32:19.505Z,55.20
2018-05-03T07:34:47.207Z,55.50
2018-05-03T07:37:14.709Z,54.80
2018-05-03T07:39:42.281Z,55.40
2018-05-03T07:42:09.917Z,54.00
2018-05-03T07:44:37.490Z,54.40
2018-05-03T07:47:08.413Z,53.60
2018-05-03T07:49:36.090Z,54.40
2018-05-03T07:52:04.875Z,52.90
2018-05-03T07:54:32.499Z,52.80
2018-05-03T07:57:00.092Z,53.10
2018-05-03T07:59:27.699Z,51.90
2018-05-03T08:01:56.422Z,51.50
2018-05-03T08:04:24.784Z,51.10
2018-05-03T08:06:52.418Z,51.10
2018-05-03T08:09:20.032Z,50.90
2018-05-03T08:11:48.424Z,53.10
2018-05-03T08:14:16.066Z,53.10
2018-05-03T08:16:44.460Z,50.60
2018-05-03T08:19:12.057Z,50.60
2018-05-03T08:21:39.665Z,52.40
2018-05-03T08:24:08.052Z,49.70
2018-05-03T08:26:36.402Z,49.80
2018-05-03T08:29:04.040Z,49.80
2018-05-03T08:31:31.740Z,51.50
2018-05-03T08:34:00.176Z,49.00
2018-05-03T08:36:27.766Z,49.00
2018-05-03T08:38:55.362Z,51.10
2018-05-03T08:41:23.027Z,50.10
2018-05-03T08:43:50.574Z,49.70
2018-05-03T08:46:18.943Z,50.60
2018-05-03T08:48:46.594Z,50.70
2018-05-03T08:51:14.216Z,50.60
2018-05-03T08:53:41.819Z,49.60
2018-05-03T08:56:10.196Z,50.80
2018-05-03T08:58:37.779Z,50.80
2018-05-03T09:01:05.394Z,50.70
2018-05-03T09:03:32.977Z,51.00
2018-05-03T09:06:01.362Z,50.40
2018-05-03T09:08:29.751Z,50.60
2018-05-03T09:10:57.376Z,50.60
2018-05-03T09:13:24.996Z,49.60
2018-05-03T09:15:52.630Z,49.70
2018-05-03T09:18:20.218Z,49.90
2018-05-03T09:20:47.827Z,49.40
2018-05-03T09:23:15.422Z,48.70
2018-05-03T09:25:43.034Z,48.70
2018-05-03T09:28:10.650Z,48.40
2018-05-03T09:30:38.240Z,48.10
2018-05-03T09:33:05.810Z,47.10
2018-05-03T09:35:33.431Z,47.20
2018-05-03T09:38:01.062Z,46.90
2018-05-03T09:40:28.659Z,48.40
2018-05-03T09:42:56.247Z,49.30
2018-05-03T09:45:23.826Z,48.00
2018-05-03T09:47:51.476Z,47.20
2018-05-03T09:50:20.302Z,47.10
2018-05-03T09:52:47.902Z,47.10
2018-05-03T09:55:21.741Z,46.60
2018-05-03T09:57:49.361Z,46.90
2018-05-03T10:00:16.963Z,47.50
2018-05-03T10:02:44.544Z,47.40
2018-05-03T10:05:12.948Z,47.80
2018-05-03T10:07:40.504Z,47.10
2018-05-03T10:10:08.062Z,47.20
2018-05-03T10:12:35.667Z,46.90
2018-05-03T10:15:03.256Z,47.70
2018-05-03T10:17:30.862Z,46.90
2018-05-03T10:19:58.491Z,46.20
2018-05-03T10:22:26.826Z,46.40
2018-05-03T10:24:54.449Z,46.40
2018-05-03T10:27:22.006Z,46.30
2018-05-03T10:29:49.610Z,45.90
2018-05-03T10:32:17.226Z,46.10
2018-05-03T10:34:45.529Z,46.90
2018-05-03T10:37:13.125Z,47.10
2018-05-03T10:39:40.729Z,45.40
2018-05-03T10:42:08.348Z,45.10
2018-05-03T10:44:35.904Z,43.90
2018-05-03T10:47:03.544Z,42.70
2018-05-03T10:49:31.403Z,43.90
2018-05-03T10:51:58.997Z,44.90
2018-05-03T10:54:26.600Z,43.70
2018-05-03T10:56:54.172Z,43.40
2018-05-03T10:59:21.772Z,42.80
2018-05-03T11:01:49.346Z,42.70
2018-05-03T11:04:16.913Z,43.20
2018-05-03T11:06:45.299Z,43.60
2018-05-03T11:09:13.692Z,43.10
2018-05-03T11:11:41.288Z,43.00
2018-05-03T11:14:08.910Z,43.50
2018-05-03T11:16:36.519Z,44.30
2018-05-03T11:19:04.112Z,44.00
2018-05-03T11:21:31.689Z,43.50
2018-05-03T11:24:00.089Z,41.90
2018-05-03T11:26:27.684Z,41.90
2018-05-03T11:28:55.292Z,43.00
2018-05-03T11:31:22.939Z,44.40
2018-05-03T11:33:50.462Z,44.80
2018-05-03T11:36:18.078Z,44.60
2018-05-03T11:38:45.676Z,44.70
2018-05-03T11:41:13.272Z,45.40
2018-05-03T11:43:40.854Z,45.50
2018-05-03T11:46:08.464Z,45.30
2018-05-03T11:48:36.078Z,44.20
2018-05-03T11:51:03.654Z,44.40
2018-05-03T11:53:31.212Z,43.60
2018-05-03T11:55:58.818Z,43.50
2018-05-03T11:58:26.424Z,43.00
2018-05-03T12:00:54.049Z,42.80
2018-05-03T12:03:21.664Z,42.40
2018-05-03T12:05:49.296Z,42.10
2018-05-03T12:08:16.874Z,40.50
2018-05-03T12:10:44.472Z,38.90
2018-05-03T12:13:12.066Z,38.80
2018-05-03T12:15:40.441Z,37.70
2018-05-03T12:18:08.846Z,38.70
2018-05-03T12:20:36.566Z,38.10
2018-05-03T12:23:04.171Z,37.00
2018-05-03T12:25:31.748Z,36.60
2018-05-03T12:27:59.392Z,35.00
2018-05-03T12:30:26.990Z,34.70
2018-05-03T12:32:54.579Z,35.40
2018-05-03T12:35:22.200Z,35.50
2018-05-03T12:37:49.820Z,34.40
2018-05-03T12:40:18.196Z,35.90
2018-05-03T12:42:46.536Z,35.10
2018-05-03T12:45:14.207Z,35.00
2018-05-03T12:47:41.816Z,33.40
2018-05-03T12:50:09.434Z,34.40
2018-05-03T12:52:37.024Z,34.50
2018-05-03T12:55:05.409Z,34.80
2018-05-03T12:57:32.968Z,34.80
2018-05-03T13:00:00.574Z,35.00
2018-05-03T13:02:28.182Z,35.60
2018-05-03T13:04:56.598Z,35.40
2018-05-03T13:07:24.196Z,35.30
2018-05-03T13:09:56.976Z,37.40
2018-05-03T13:12:24.589Z,37.30
2018-05-03T13:14:55.497Z,37.40
2018-05-03T13:17:23.864Z,39.40
2018-05-03T13:19:51.471Z,39.30
2018-05-03T13:22:19.070Z,40.60
2018-05-03T13:24:48.154Z,39.00
2018-05-03T13:27:15.744Z,39.00
2018-05-03T13:29:43.370Z,39.30
2018-05-03T13:32:10.998Z,39.70
2018-05-03T13:34:38.590Z,40.00
2018-05-03T13:37:06.204Z,40.60
2018-05-03T13:39:34.555Z,39.30
2018-05-03T13:42:02.169Z,39.30
2018-05-03T13:44:29.753Z,38.40
2018-05-03T13:46:57.358Z,39.50
2018-05-03T13:49:25.756Z,37.10
2018-05-03T13:51:53.397Z,37.10
2018-05-03T13:54:22.075Z,38.00
2018-05-03T13:56:49.684Z,37.80
2018-05-03T13:59:17.275Z,36.70
2018-05-03T14:01:44.831Z,37.10
2018-05-03T14:04:12.657Z,37.50
2018-05-03T14:06:40.221Z,38.20
2018-05-03T14:09:07.823Z,38.40
2018-05-03T14:11:35.455Z,37.80
2018-05-03T14:14:03.091Z,36.50
2018-05-03T14:16:30.693Z,36.10
2018-05-03T14:18:58.267Z,36.70
2018-05-03T14:21:25.889Z,36.50
2018-05-03T14:23:53.506Z,35.90
2018-05-03T14:26:21.849Z,37.60
2018-05-03T14:28:54.951Z,37.00
2018-05-03T14:31:22.566Z,37.70
2018-05-03T14:33:50.140Z,37.70
2018-05-03T14:36:17.736Z,37.00
2018-05-03T14:38:45.350Z,37.70
2018-05-03T14:41:13.035Z,38.00
2018-05-03T14:43:40.614Z,38.60
2018-05-03T14:46:08.239Z,37.70
2018-05-03T14:48:35.849Z,36.90
2018-05-03T14:51:03.464Z,36.10
2018-05-03T14:53:31.073Z,37.20
2018-05-03T14:55:58.656Z,36.10
2018-05-03T14:58:27.028Z,38.50
2018-05-03T15:00:55.421Z,37.50
2018-05-03T15:03:23.056Z,37.50
2018-05-03T15:05:50.678Z,38.00
2018-05-03T15:08:18.381Z,37.90
2018-05-03T15:10:48.066Z,38.10
2018-05-03T15:13:16.501Z,39.30
2018-05-03T15:15:44.141Z,39.30
2018-05-03T15:18:15.875Z,40.10
2018-05-03T15:20:43.983Z,40.30
2018-05-03T15:23:11.593Z,40.70
2018-05-03T15:25:39.219Z,40.10
2018-05-03T15:28:07.869Z,39.30
2018-05-03T15:30:35.488Z,40.40
2018-05-03T15:33:03.073Z,40.70
2018-05-03T15:35:30.671Z,39.90
2018-05-03T15:37:58.283Z,40.50
2018-05-03T15:40:25.883Z,40.90
2018-05-03T15:42:53.508Z,42.10
2018-05-03T15:45:21.102Z,42.10
2018-05-03T15:47:48.814Z,42.50
2018-05-03T15:50:17.206Z,41.70
2018-05-03T15:52:45.510Z,42.00
2018-05-03T15:55:13.130Z,41.90
2018-05-03T15:57:41.473Z,42.70
2018-05-03T16:00:09.084Z,42.70
2018-05-03T16:02:36.700Z,42.80
2018-05-03T16:05:04.342Z,43.10
2018-05-03T16:07:31.968Z,43.40
2018-05-03T16:09:59.541Z,43.90
2018-05-03T16:12:27.132Z,43.10
2018-05-03T16:14:55.844Z,43.70
2018-05-03T16:17:24.392Z,44.10
2018-05-03T16:19:51.990Z,44.60
2018-05-03T16:22:19.676Z,45.00
2018-05-03T16:24:47.258Z,45.10
2018-05-03T16:27:14.874Z,45.60
2018-05-03T16:29:42.450Z,45.80
2018-05-03T16:32:10.974Z,46.10
2018-05-03T16:34:40.880Z,46.10
2018-05-03T16:37:08.519Z,46.20
2018-05-03T16:39:36.327Z,46.50
2018-05-03T16:42:03.954Z,47.00
2018-05-03T16:44:31.576Z,47.30
2018-05-03T16:46:59.916Z,47.70
2018-05-03T16:49:27.487Z,47.00
2018-05-03T16:51:55.311Z,47.10
2018-05-03T16:54:23.428Z,47.50
2018-05-03T16:56:51.043Z,47.50
2018-05-03T16:59:18.948Z,47.60
2018-05-03T17:01:46.675Z,46.90
2018-05-03T17:04:14.465Z,47.30
2018-05-03T17:06:42.127Z,47.20
2018-05-03T17:09:09.873Z,47.90
2018-05-03T17:11:37.539Z,48.00
2018-05-03T17:14:05.245Z,47.90
2018-05-03T17:16:32.862Z,48.10
2018-05-03T17:19:00.494Z,48.10
2018-05-03T17:21:28.866Z,48.50
2018-05-03T17:23:57.215Z,48.70
2018-05-03T17:26:24.782Z,48.60
2018-05-03T17:28:52.364Z,49.10
2018-05-03T17:31:20.801Z,49.60
2018-05-03T17:33:48.975Z,49.40
2018-05-03T17:36:17.324Z,49.40
2018-05-03T17:38:45.524Z,49.60
2018-05-03T17:41:13.203Z,49.90
2018-05-03T17:43:40.812Z,49.50
2018-05-03T17:46:08.612Z,49.60
2018-05-03T17:48:36.312Z,49.30
2018-05-03T17:51:04.735Z,49.80
2018-05-03T17:53:33.080Z,50.00
2018-05-03T17:56:01.481Z,50.00
2018-05-03T17:58:41.849Z,50.00
2018-05-03T18:01:14.078Z,50.10
2018-05-03T18:03:42.312Z,50.10
2018-05-03T18:06:11.776Z,50.70
2018-05-03T18:08:39.687Z,50.80
2018-05-03T18:11:07.442Z,50.90
2018-05-03T18:13:35.536Z,51.00
2018-05-03T18:16:03.221Z,51.10
2018-05-03T18:18:41.547Z,51.30
2018-05-03T18:21:17.102Z,51.50
2018-05-03T18:23:45.709Z,51.60
2018-05-03T18:26:13.326Z,51.60
2018-05-03T18:28:46.171Z,51.60
2018-05-03T18:31:13.808Z,51.40
2018-05-03T18:33:42.117Z,51.50
2018-05-03T18:36:09.984Z,51.40
2018-05-03T18:38:37.778Z,51.60
2018-05-03T18:41:05.840Z,51.80
2018-05-03T18:43:33.458Z,51.70
2018-05-03T18:46:01.042Z,52.40
2018-05-03T18:48:28.588Z,51.60
2018-05-03T18:50:56.198Z,51.90
2018-05-03T18:53:24.543Z,51.70
2018-05-03T18:55:52.168Z,51.70
2018-05-03T18:58:19.974Z,51.70
2018-05-03T19:00:47.663Z,51.60
2018-05-03T19:03:16.447Z,52.30
2018-05-03T19:05:44.172Z,51.90
2018-05-03T19:08:11.815Z,52.00
2018-05-03T19:10:39.448Z,52.00
2018-05-03T19:13:07.898Z,52.20
2018-05-03T19:15:35.642Z,52.20
2018-05-03T19:18:03.337Z,52.40
2018-05-03T19:20:30.976Z,52.40
2018-05-03T19:22:59.625Z,52.50
2018-05-03T19:25:27.284Z,52.50
2018-05-03T19:27:54.900Z,52.70
2018-05-03T19:30:24.043Z,52.80
2018-05-03T19:32:51.661Z,52.80
2018-05-03T19:35:19.292Z,52.90
2018-05-03T19:37:46.881Z,53.10
2018-05-03T19:40:27.499Z,53.10
2018-05-03T19:42:55.115Z,53.00
2018-05-03T19:45:22.723Z,53.00
2018-05-03T19:47:56.802Z,53.00
2018-05-03T19:50:25.205Z,53.20
2018-05-03T19:52:52.799Z,53.70
2018-05-03T19:55:20.395Z,53.40
2018-05-03T19:57:48.032Z,53.20
2018-05-03T20:00:29.068Z,53.30
2018-05-03T20:02:59.663Z,53.30
2018-05-03T20:05:28.057Z,53.50
2018-05-03T20:07:55.838Z,53.30
2018-05-03T20:10:23.447Z,53.60
2018-05-03T20:12:51.110Z,53.40
2018-05-03T20:15:19.571Z,53.80
2018-05-03T20:17:47.167Z,53.60
2018-05-03T20:20:14.804Z,53.40
2018-05-03T20:22:45.866Z,53.40
2018-05-03T20:25:13.509Z,53.60
2018-05-03T20:27:41.131Z,53.40
2018-05-03T20:30:08.747Z,53.50
2018-05-03T20:32:36.338Z,53.60
2018-05-03T20:35:04.724Z,53.60
2018-05-03T20:37:33.131Z,53.60
2018-05-03T20:40:04.021Z,53.60
2018-05-03T20:45:24.871Z,53.70
2018-05-03T20:47:52.487Z,53.70
2018-05-03T20:53:16.311Z,53.80
2018-05-03T20:55:44.688Z,54.10
2018-05-03T20:58:13.081Z,54.10
2018-05-03T21:00:40.782Z,54.00
2018-05-03T21:03:08.367Z,54.10
2018-05-03T21:05:35.986Z,54.40
2018-05-03T21:08:03.637Z,54.40
2018-05-03T21:10:41.385Z,54.60
2018-05-03T21:13:08.943Z,54.60
2018-05-03T21:15:36.534Z,54.60
2018-05-03T21:18:04.913Z,54.90
2018-05-03T21:20:33.329Z,55.40
2018-05-03T21:23:00.931Z,55.00
2018-05-03T21:25:32.828Z,55.00
2018-05-03T21:28:00.503Z,55.00
2018-05-03T21:30:28.186Z,55.10
2018-05-03T21:32:55.935Z,55.00
2018-05-03T21:35:37.038Z,55.30
2018-05-03T21:38:05.829Z,55.30
2018-05-03T21:40:33.467Z,55.30
2018-05-03T21:43:04.560Z,55.40
2018-05-03T21:45:37.499Z,55.60
2018-05-03T21:48:08.457Z,55.60
2018-05-03T21:50:36.077Z,55.60
2018-05-03T21:53:03.711Z,55.80
2018-05-03T21:55:31.314Z,56.00
2018-05-03T21:58:11.673Z,56.00
2018-05-03T22:00:39.288Z,56.00
2018-05-03T22:03:06.961Z,56.00
2018-05-03T22:05:35.396Z,56.20
2018-05-03T22:08:03.037Z,56.20
2018-05-03T22:10:30.626Z,56.10
2018-05-03T22:12:58.234Z,56.10
2018-05-03T22:15:25.831Z,56.20
2018-05-03T22:17:53.442Z,56.30
2018-05-03T22:20:21.070Z,56.40
2018-05-03T22:22:48.699Z,56.80
2018-05-03T22:25:16.301Z,56.50
2018-05-03T22:27:43.882Z,56.70
2018-05-03T22:30:11.547Z,56.60
2018-05-03T22:32:39.899Z,57.10
2018-05-03T22:35:07.584Z,56.50
2018-05-03T22:37:35.190Z,56.40
2018-05-03T22:40:02.836Z,56.60
2018-05-03T22:42:30.428Z,56.60
2018-05-03T22:44:58.020Z,56.60
2018-05-03T22:47:25.648Z,56.60
2018-05-03T22:49:53.250Z,56.60
2018-05-03T22:52:20.902Z,56.60
2018-05-03T22:54:48.580Z,56.60
2018-05-03T22:57:16.202Z,56.70
2018-05-03T22:59:43.843Z,56.70
2018-05-03T23:02:11.486Z,56.60
2018-05-03T23:04:39.175Z,56.80
2018-05-03T23:07:06.792Z,56.90
2018-05-03T23:09:35.188Z,56.70
2018-05-03T23:12:02.804Z,56.70
2018-05-03T23:14:30.456Z,56.90
2018-05-03T23:16:58.054Z,57.00
2018-05-03T23:19:25.764Z,56.80
2018-05-03T23:21:53.376Z,57.00
2018-05-03T23:24:21.765Z,57.00
2018-05-03T23:26:50.134Z,57.00
2018-05-03T23:29:18.538Z,56.80
2018-05-03T23:31:46.147Z,56.80
2018-05-03T23:34:13.786Z,56.90
2018-05-03T23:36:41.399Z,57.00
2018-05-03T23:39:09.787Z,57.00
2018-05-03T23:41:37.342Z,57.00
2018-05-03T23:44:05.717Z,57.00
2018-05-03T23:46:33.335Z,57.00
2018-05-03T23:49:00.938Z,57.20
2018-05-03T23:51:29.340Z,57.40
2018-05-03T23:53:56.962Z,57.30
2018-05-03T23:56:24.590Z,57.50
2018-05-03T23:58:52.342Z,57.50
